sensor_id;sensor_type;location;lat;lon;timestamp;P1;durP1;ratioP1;P2;durP2;ratioP2
37891;SDS011;45797;47.466;9.486;2023-06-26T00:02:09;5.85;;;3.25;;
37891;SDS011;45797;47.466;9.486;2023-06-26T00:07:10;6.88;;;3.50;;
37891;SDS011;45797;47.466;9.486;2023-06-26T00:12:12;6.18;;;3.40;;
37891;SDS011;45797;47.466;9.486;2023-06-26T00:17:12;5.88;;;3.13;;
37891;SDS011;45797;47.466;9.486;2023-06-26T00:22:13;5.72;;;3.17;;
37891;SDS011;45797;47.466;9.486;2023-06-26T00:27:29;5.60;;;3.00;;
37891;SDS011;45797;47.466;9.486;2023-06-26T00:32:29;6.50;;;3.60;;
37891;SDS011;45797;47.466;9.486;2023-06-26T00:37:30;5.97;;;3.45;;
37891;SDS011;45797;47.466;9.486;2023-06-26T00:42:43;5.63;;;3.08;;
37891;SDS011;45797;47.466;9.486;2023-06-26T00:47:47;5.03;;;3.05;;
37891;SDS011;45797;47.466;9.486;2023-06-26T00:53:04;6.07;;;3.20;;
37891;SDS011;45797;47.466;9.486;2023-06-26T00:58:07;6.85;;;3.60;;
37891;SDS011;45797;47.466;9.486;2023-06-26T01:03:17;5.90;;;3.33;;
37891;SDS011;45797;47.466;9.486;2023-06-26T01:08:25;6.53;;;3.25;;
37891;SDS011;45797;47.466;9.486;2023-06-26T01:13:28;5.95;;;3.53;;
37891;SDS011;45797;47.466;9.486;2023-06-26T01:18:29;5.75;;;3.70;;
37891;SDS011;45797;47.466;9.486;2023-06-26T01:28:51;7.05;;;3.40;;
37891;SDS011;45797;47.466;9.486;2023-06-26T01:39:04;6.88;;;4.13;;
37891;SDS011;45797;47.466;9.486;2023-06-26T01:44:20;7.60;;;3.45;;
37891;SDS011;45797;47.466;9.486;2023-06-26T01:49:27;5.60;;;3.60;;
37891;SDS011;45797;47.466;9.486;2023-06-26T01:54:57;6.45;;;3.40;;
37891;SDS011;45797;47.466;9.486;2023-06-26T02:00:03;6.30;;;3.45;;
37891;SDS011;45797;47.466;9.486;2023-06-26T02:05:14;6.43;;;3.42;;
37891;SDS011;45797;47.466;9.486;2023-06-26T02:10:16;7.53;;;3.25;;
37891;SDS011;45797;47.466;9.486;2023-06-26T02:15:23;6.32;;;3.30;;
37891;SDS011;45797;47.466;9.486;2023-06-26T02:20:33;6.90;;;3.30;;
37891;SDS011;45797;47.466;9.486;2023-06-26T02:25:34;5.90;;;3.47;;
37891;SDS011;45797;47.466;9.486;2023-06-26T02:30:45;7.28;;;3.75;;
37891;SDS011;45797;47.466;9.486;2023-06-26T02:35:46;6.55;;;3.72;;
37891;SDS011;45797;47.466;9.486;2023-06-26T02:40:48;8.45;;;3.65;;
37891;SDS011;45797;47.466;9.486;2023-06-26T02:45:52;5.70;;;3.40;;
37891;SDS011;45797;47.466;9.486;2023-06-26T02:50:53;7.40;;;3.88;;
37891;SDS011;45797;47.466;9.486;2023-06-26T02:56:00;7.32;;;3.95;;
37891;SDS011;45797;47.466;9.486;2023-06-26T03:01:01;6.35;;;3.85;;
37891;SDS011;45797;47.466;9.486;2023-06-26T03:06:02;6.75;;;3.67;;
37891;SDS011;45797;47.466;9.486;2023-06-26T03:11:05;6.53;;;3.58;;
37891;SDS011;45797;47.466;9.486;2023-06-26T03:16:06;5.30;;;3.50;;
37891;SDS011;45797;47.466;9.486;2023-06-26T03:26:14;7.75;;;3.85;;
37891;SDS011;45797;47.466;9.486;2023-06-26T03:36:35;7.07;;;3.90;;
37891;SDS011;45797;47.466;9.486;2023-06-26T03:41:47;8.77;;;4.20;;
37891;SDS011;45797;47.466;9.486;2023-06-26T03:46:50;7.20;;;3.72;;
37891;SDS011;45797;47.466;9.486;2023-06-26T03:51:58;6.30;;;3.67;;
37891;SDS011;45797;47.466;9.486;2023-06-26T03:56:59;6.85;;;4.03;;
37891;SDS011;45797;47.466;9.486;2023-06-26T04:02:01;8.15;;;3.65;;
37891;SDS011;45797;47.466;9.486;2023-06-26T04:07:04;7.97;;;4.00;;
37891;SDS011;45797;47.466;9.486;2023-06-26T04:12:05;7.20;;;3.90;;
37891;SDS011;45797;47.466;9.486;2023-06-26T04:17:24;8.00;;;4.13;;
37891;SDS011;45797;47.466;9.486;2023-06-26T04:27:30;7.45;;;4.00;;
37891;SDS011;45797;47.466;9.486;2023-06-26T04:32:31;10.70;;;4.47;;
37891;SDS011;45797;47.466;9.486;2023-06-26T04:37:33;6.80;;;3.72;;
37891;SDS011;45797;47.466;9.486;2023-06-26T04:42:34;8.60;;;5.10;;
37891;SDS011;45797;47.466;9.486;2023-06-26T04:47:36;7.18;;;4.50;;
37891;SDS011;45797;47.466;9.486;2023-06-26T04:52:51;7.85;;;4.30;;
37891;SDS011;45797;47.466;9.486;2023-06-26T04:58:01;7.75;;;4.28;;
37891;SDS011;45797;47.466;9.486;2023-06-26T05:03:01;7.00;;;4.10;;
37891;SDS011;45797;47.466;9.486;2023-06-26T05:13:19;7.20;;;4.22;;
37891;SDS011;45797;47.466;9.486;2023-06-26T05:18:20;8.20;;;4.78;;
37891;SDS011;45797;47.466;9.486;2023-06-26T05:28:43;7.22;;;4.40;;
37891;SDS011;45797;47.466;9.486;2023-06-26T05:43:59;8.30;;;5.00;;
37891;SDS011;45797;47.466;9.486;2023-06-26T05:54:16;8.65;;;4.43;;
37891;SDS011;45797;47.466;9.486;2023-06-26T05:59:33;10.75;;;5.15;;
37891;SDS011;45797;47.466;9.486;2023-06-26T06:04:36;7.32;;;4.30;;
37891;SDS011;45797;47.466;9.486;2023-06-26T06:09:50;8.93;;;4.53;;
37891;SDS011;45797;47.466;9.486;2023-06-26T06:14:52;6.72;;;4.13;;
37891;SDS011;45797;47.466;9.486;2023-06-26T06:24:58;7.53;;;4.72;;
37891;SDS011;45797;47.466;9.486;2023-06-26T06:30:04;8.43;;;4.57;;
37891;SDS011;45797;47.466;9.486;2023-06-26T06:40:19;9.00;;;4.90;;
37891;SDS011;45797;47.466;9.486;2023-06-26T06:45:22;9.93;;;5.20;;
37891;SDS011;45797;47.466;9.486;2023-06-26T06:50:22;8.73;;;4.85;;
37891;SDS011;45797;47.466;9.486;2023-06-26T06:55:24;9.20;;;5.03;;
37891;SDS011;45797;47.466;9.486;2023-06-26T07:00:26;9.13;;;4.80;;
37891;SDS011;45797;47.466;9.486;2023-06-26T07:05:30;9.30;;;5.38;;
37891;SDS011;45797;47.466;9.486;2023-06-26T07:10:31;10.25;;;5.25;;
37891;SDS011;45797;47.466;9.486;2023-06-26T07:15:31;10.05;;;5.00;;
37891;SDS011;45797;47.466;9.486;2023-06-26T07:20:33;10.80;;;5.80;;
37891;SDS011;45797;47.466;9.486;2023-06-26T07:25:33;9.75;;;5.07;;
37891;SDS011;45797;47.466;9.486;2023-06-26T07:30:41;8.73;;;5.40;;
37891;SDS011;45797;47.466;9.486;2023-06-26T07:35:42;10.35;;;5.70;;
37891;SDS011;45797;47.466;9.486;2023-06-26T07:40:44;8.77;;;4.90;;
37891;SDS011;45797;47.466;9.486;2023-06-26T07:51:09;11.10;;;5.75;;
37891;SDS011;45797;47.466;9.486;2023-06-26T07:56:22;10.57;;;5.60;;
37891;SDS011;45797;47.466;9.486;2023-06-26T08:01:29;9.30;;;5.47;;
37891;SDS011;45797;47.466;9.486;2023-06-26T08:06:35;11.45;;;5.60;;
37891;SDS011;45797;47.466;9.486;2023-06-26T08:11:39;9.05;;;5.57;;
37891;SDS011;45797;47.466;9.486;2023-06-26T08:16:40;8.77;;;5.38;;
37891;SDS011;45797;47.466;9.486;2023-06-26T08:21:59;10.15;;;5.80;;
37891;SDS011;45797;47.466;9.486;2023-06-26T08:32:21;10.38;;;5.65;;
37891;SDS011;45797;47.466;9.486;2023-06-26T08:42:26;7.97;;;5.10;;
37891;SDS011;45797;47.466;9.486;2023-06-26T08:47:26;8.82;;;5.07;;
37891;SDS011;45797;47.466;9.486;2023-06-26T08:52:36;9.93;;;5.65;;
37891;SDS011;45797;47.466;9.486;2023-06-26T08:57:41;8.93;;;5.10;;
37891;SDS011;45797;47.466;9.486;2023-06-26T09:08:02;11.32;;;5.88;;
37891;SDS011;45797;47.466;9.486;2023-06-26T09:13:18;9.82;;;5.03;;
37891;SDS011;45797;47.466;9.486;2023-06-26T09:18:20;8.85;;;5.10;;
37891;SDS011;45797;47.466;9.486;2023-06-26T09:23:21;9.82;;;5.00;;
37891;SDS011;45797;47.466;9.486;2023-06-26T09:28:30;7.75;;;5.53;;
37891;SDS011;45797;47.466;9.486;2023-06-26T09:33:35;8.88;;;5.03;;
37891;SDS011;45797;47.466;9.486;2023-06-26T09:38:38;10.02;;;5.20;;
37891;SDS011;45797;47.466;9.486;2023-06-26T09:43:45;9.32;;;5.68;;
37891;SDS011;45797;47.466;9.486;2023-06-26T09:48:57;9.88;;;5.97;;
37891;SDS011;45797;47.466;9.486;2023-06-26T09:54:09;7.63;;;4.85;;
37891;SDS011;45797;47.466;9.486;2023-06-26T09:59:10;7.85;;;5.13;;
37891;SDS011;45797;47.466;9.486;2023-06-26T10:04:10;8.20;;;5.18;;
37891;SDS011;45797;47.466;9.486;2023-06-26T10:09:11;8.45;;;5.20;;
37891;SDS011;45797;47.466;9.486;2023-06-26T10:14:16;9.30;;;5.75;;
37891;SDS011;45797;47.466;9.486;2023-06-26T10:19:24;8.38;;;5.20;;
37891;SDS011;45797;47.466;9.486;2023-06-26T10:24:43;8.75;;;5.50;;
37891;SDS011;45797;47.466;9.486;2023-06-26T10:35:00;9.75;;;5.55;;
37891;SDS011;45797;47.466;9.486;2023-06-26T10:40:04;7.15;;;5.25;;
37891;SDS011;45797;47.466;9.486;2023-06-26T10:45:21;8.07;;;5.18;;
37891;SDS011;45797;47.466;9.486;2023-06-26T10:55:55;7.60;;;5.00;;
37891;SDS011;45797;47.466;9.486;2023-06-26T11:06:32;8.48;;;4.72;;
37891;SDS011;45797;47.466;9.486;2023-06-26T11:17:05;7.68;;;5.10;;
37891;SDS011;45797;47.466;9.486;2023-06-26T11:22:06;6.93;;;4.72;;
37891;SDS011;45797;47.466;9.486;2023-06-26T11:27:08;5.80;;;4.45;;
37891;SDS011;45797;47.466;9.486;2023-06-26T11:37:31;8.13;;;4.50;;
37891;SDS011;45797;47.466;9.486;2023-06-26T11:47:54;7.82;;;4.20;;
37891;SDS011;45797;47.466;9.486;2023-06-26T11:52:58;6.25;;;4.32;;
37891;SDS011;45797;47.466;9.486;2023-06-26T11:58:10;6.60;;;4.10;;
37891;SDS011;45797;47.466;9.486;2023-06-26T12:03:12;7.25;;;4.38;;
37891;SDS011;45797;47.466;9.486;2023-06-26T12:08:13;6.57;;;4.40;;
37891;SDS011;45797;47.466;9.486;2023-06-26T12:13:29;10.35;;;4.40;;
37891;SDS011;45797;47.466;9.486;2023-06-26T12:18:42;6.35;;;4.32;;
37891;SDS011;45797;47.466;9.486;2023-06-26T12:23:44;6.72;;;4.53;;
37891;SDS011;45797;47.466;9.486;2023-06-26T12:28:44;6.85;;;4.28;;
37891;SDS011;45797;47.466;9.486;2023-06-26T12:44:01;6.07;;;4.32;;
37891;SDS011;45797;47.466;9.486;2023-06-26T12:49:02;9.45;;;4.82;;
37891;SDS011;45797;47.466;9.486;2023-06-26T12:54:03;6.35;;;4.47;;
37891;SDS011;45797;47.466;9.486;2023-06-26T12:59:04;6.90;;;4.70;;
37891;SDS011;45797;47.466;9.486;2023-06-26T13:04:05;7.18;;;4.65;;
37891;SDS011;45797;47.466;9.486;2023-06-26T13:09:17;6.22;;;4.38;;
37891;SDS011;45797;47.466;9.486;2023-06-26T13:14:24;7.32;;;4.75;;
37891;SDS011;45797;47.466;9.486;2023-06-26T13:19:24;6.45;;;4.60;;
37891;SDS011;45797;47.466;9.486;2023-06-26T13:24:26;6.47;;;4.65;;
37891;SDS011;45797;47.466;9.486;2023-06-26T13:29:34;7.85;;;4.40;;
37891;SDS011;45797;47.466;9.486;2023-06-26T13:34:35;6.47;;;4.30;;
37891;SDS011;45797;47.466;9.486;2023-06-26T13:39:36;7.05;;;4.68;;
37891;SDS011;45797;47.466;9.486;2023-06-26T13:44:45;6.90;;;4.82;;
37891;SDS011;45797;47.466;9.486;2023-06-26T13:49:54;6.55;;;4.50;;
37891;SDS011;45797;47.466;9.486;2023-06-26T13:54:56;7.25;;;4.85;;
37891;SDS011;45797;47.466;9.486;2023-06-26T14:00:03;6.05;;;4.30;;
37891;SDS011;45797;47.466;9.486;2023-06-26T14:05:12;6.07;;;4.40;;
37891;SDS011;45797;47.466;9.486;2023-06-26T14:15:25;7.75;;;4.88;;
37891;SDS011;45797;47.466;9.486;2023-06-26T14:20:26;7.70;;;5.00;;
37891;SDS011;45797;47.466;9.486;2023-06-26T14:25:27;6.28;;;4.93;;
37891;SDS011;45797;47.466;9.486;2023-06-26T14:30:30;7.30;;;4.97;;
37891;SDS011;45797;47.466;9.486;2023-06-26T14:35:30;28.02;;;5.80;;
37891;SDS011;45797;47.466;9.486;2023-06-26T14:40:36;8.20;;;5.05;;
37891;SDS011;45797;47.466;9.486;2023-06-26T14:45:37;11.90;;;5.03;;
37891;SDS011;45797;47.466;9.486;2023-06-26T14:50:41;9.07;;;4.82;;
37891;SDS011;45797;47.466;9.486;2023-06-26T14:55:42;7.78;;;5.15;;
37891;SDS011;45797;47.466;9.486;2023-06-26T15:06:19;7.53;;;5.32;;
37891;SDS011;45797;47.466;9.486;2023-06-26T15:11:20;7.25;;;4.97;;
37891;SDS011;45797;47.466;9.486;2023-06-26T15:16:29;7.82;;;5.38;;
37891;SDS011;45797;47.466;9.486;2023-06-26T15:21:32;7.82;;;5.40;;
37891;SDS011;45797;47.466;9.486;2023-06-26T15:26:32;7.35;;;5.25;;
37891;SDS011;45797;47.466;9.486;2023-06-26T15:31:33;6.70;;;5.10;;
37891;SDS011;45797;47.466;9.486;2023-06-26T15:36:34;8.50;;;5.15;;
37891;SDS011;45797;47.466;9.486;2023-06-26T15:41:36;7.85;;;4.80;;
37891;SDS011;45797;47.466;9.486;2023-06-26T15:46:51;10.85;;;5.65;;
37891;SDS011;45797;47.466;9.486;2023-06-26T15:51:52;8.70;;;5.30;;
37891;SDS011;45797;47.466;9.486;2023-06-26T16:02:03;8.70;;;5.05;;
37891;SDS011;45797;47.466;9.486;2023-06-26T16:07:04;6.68;;;5.00;;
37891;SDS011;45797;47.466;9.486;2023-06-26T16:12:05;7.70;;;5.40;;
37891;SDS011;45797;47.466;9.486;2023-06-26T16:17:06;6.38;;;5.07;;
37891;SDS011;45797;47.466;9.486;2023-06-26T16:22:08;7.47;;;4.63;;
37891;SDS011;45797;47.466;9.486;2023-06-26T16:27:08;6.90;;;4.88;;
37891;SDS011;45797;47.466;9.486;2023-06-26T16:32:25;8.10;;;5.10;;
37891;SDS011;45797;47.466;9.486;2023-06-26T16:42:47;6.80;;;4.57;;
37891;SDS011;45797;47.466;9.486;2023-06-26T16:52:51;7.20;;;4.82;;
37891;SDS011;45797;47.466;9.486;2023-06-26T16:57:52;7.15;;;4.93;;
37891;SDS011;45797;47.466;9.486;2023-06-26T17:07:55;8.45;;;4.88;;
37891;SDS011;45797;47.466;9.486;2023-06-26T17:13:02;6.68;;;4.75;;
37891;SDS011;45797;47.466;9.486;2023-06-26T17:18:11;5.80;;;4.03;;
37891;SDS011;45797;47.466;9.486;2023-06-26T17:28:23;7.30;;;4.30;;
37891;SDS011;45797;47.466;9.486;2023-06-26T17:33:24;6.30;;;3.97;;
37891;SDS011;45797;47.466;9.486;2023-06-26T17:38:26;5.63;;;3.80;;
37891;SDS011;45797;47.466;9.486;2023-06-26T17:43:27;5.50;;;3.60;;
37891;SDS011;45797;47.466;9.486;2023-06-26T17:48:27;5.32;;;3.70;;
37891;SDS011;45797;47.466;9.486;2023-06-26T17:53:28;6.53;;;3.53;;
37891;SDS011;45797;47.466;9.486;2023-06-26T17:58:32;8.27;;;3.50;;
37891;SDS011;45797;47.466;9.486;2023-06-26T18:03:35;6.43;;;3.55;;
37891;SDS011;45797;47.466;9.486;2023-06-26T18:08:36;5.85;;;3.30;;
37891;SDS011;45797;47.466;9.486;2023-06-26T18:13:46;4.63;;;2.65;;
37891;SDS011;45797;47.466;9.486;2023-06-26T18:18:47;5.57;;;3.15;;
37891;SDS011;45797;47.466;9.486;2023-06-26T18:23:47;6.45;;;2.92;;
37891;SDS011;45797;47.466;9.486;2023-06-26T18:34:03;5.20;;;2.60;;
37891;SDS011;45797;47.466;9.486;2023-06-26T18:39:14;6.05;;;2.50;;
37891;SDS011;45797;47.466;9.486;2023-06-26T18:44:15;8.52;;;2.60;;
37891;SDS011;45797;47.466;9.486;2023-06-26T18:49:31;4.22;;;2.20;;
37891;SDS011;45797;47.466;9.486;2023-06-26T18:54:31;3.97;;;2.05;;
37891;SDS011;45797;47.466;9.486;2023-06-26T18:59:31;4.10;;;2.25;;
37891;SDS011;45797;47.466;9.486;2023-06-26T19:04:32;4.88;;;2.45;;
37891;SDS011;45797;47.466;9.486;2023-06-26T19:20:07;3.90;;;2.20;;
37891;SDS011;45797;47.466;9.486;2023-06-26T19:25:09;4.40;;;2.08;;
37891;SDS011;45797;47.466;9.486;2023-06-26T19:30:11;5.68;;;2.60;;
37891;SDS011;45797;47.466;9.486;2023-06-26T19:35:23;6.15;;;2.85;;
37891;SDS011;45797;47.466;9.486;2023-06-26T19:40:29;3.67;;;2.22;;
37891;SDS011;45797;47.466;9.486;2023-06-26T19:45:38;4.85;;;2.40;;
37891;SDS011;45797;47.466;9.486;2023-06-26T19:50:52;4.00;;;2.10;;
37891;SDS011;45797;47.466;9.486;2023-06-26T19:55:53;5.03;;;2.65;;
37891;SDS011;45797;47.466;9.486;2023-06-26T20:00:59;4.55;;;2.55;;
37891;SDS011;45797;47.466;9.486;2023-06-26T20:06:01;6.93;;;2.50;;
37891;SDS011;45797;47.466;9.486;2023-06-26T20:11:04;4.47;;;2.30;;
37891;SDS011;45797;47.466;9.486;2023-06-26T20:16:04;5.97;;;2.58;;
37891;SDS011;45797;47.466;9.486;2023-06-26T20:26:21;4.93;;;2.72;;
37891;SDS011;45797;47.466;9.486;2023-06-26T20:31:23;4.72;;;2.63;;
37891;SDS011;45797;47.466;9.486;2023-06-26T20:36:23;4.78;;;2.50;;
37891;SDS011;45797;47.466;9.486;2023-06-26T20:41:32;7.43;;;3.03;;
37891;SDS011;45797;47.466;9.486;2023-06-26T20:46:42;7.50;;;3.22;;
37891;SDS011;45797;47.466;9.486;2023-06-26T20:51:54;9.50;;;3.92;;
37891;SDS011;45797;47.466;9.486;2023-06-26T20:56:56;8.48;;;4.05;;
37891;SDS011;45797;47.466;9.486;2023-06-26T21:01:56;7.35;;;3.55;;
37891;SDS011;45797;47.466;9.486;2023-06-26T21:06:57;7.32;;;4.07;;
37891;SDS011;45797;47.466;9.486;2023-06-26T21:12:05;10.60;;;3.90;;
37891;SDS011;45797;47.466;9.486;2023-06-26T21:17:08;7.80;;;4.15;;
37891;SDS011;45797;47.466;9.486;2023-06-26T21:22:16;6.25;;;3.58;;
37891;SDS011;45797;47.466;9.486;2023-06-26T21:27:27;6.63;;;3.42;;
37891;SDS011;45797;47.466;9.486;2023-06-26T21:32:28;5.68;;;2.80;;
37891;SDS011;45797;47.466;9.486;2023-06-26T21:37:29;5.82;;;2.83;;
37891;SDS011;45797;47.466;9.486;2023-06-26T21:42:29;7.82;;;2.80;;
37891;SDS011;45797;47.466;9.486;2023-06-26T21:52:44;5.75;;;2.85;;
37891;SDS011;45797;47.466;9.486;2023-06-26T21:57:50;6.22;;;2.47;;
37891;SDS011;45797;47.466;9.486;2023-06-26T22:02:51;4.55;;;2.22;;
37891;SDS011;45797;47.466;9.486;2023-06-26T22:07:59;6.10;;;2.28;;
37891;SDS011;45797;47.466;9.486;2023-06-26T22:18:06;4.47;;;2.03;;
37891;SDS011;45797;47.466;9.486;2023-06-26T22:28:17;6.68;;;2.40;;
37891;SDS011;45797;47.466;9.486;2023-06-26T22:33:29;4.05;;;1.95;;
37891;SDS011;45797;47.466;9.486;2023-06-26T22:38:30;5.00;;;1.90;;
37891;SDS011;45797;47.466;9.486;2023-06-26T22:43:38;3.38;;;1.67;;
37891;SDS011;45797;47.466;9.486;2023-06-26T22:53:42;3.72;;;1.95;;
37891;SDS011;45797;47.466;9.486;2023-06-26T22:58:46;4.40;;;2.30;;
37891;SDS011;45797;47.466;9.486;2023-06-26T23:03:49;4.60;;;1.70;;
37891;SDS011;45797;47.466;9.486;2023-06-26T23:14:01;3.67;;;1.80;;
37891;SDS011;45797;47.466;9.486;2023-06-26T23:19:04;4.78;;;1.70;;
37891;SDS011;45797;47.466;9.486;2023-06-26T23:24:15;3.97;;;1.52;;
37891;SDS011;45797;47.466;9.486;2023-06-26T23:29:31;5.20;;;1.65;;
37891;SDS011;45797;47.466;9.486;2023-06-26T23:34:35;3.95;;;1.70;;
37891;SDS011;45797;47.466;9.486;2023-06-26T23:39:52;4.53;;;1.40;;
37891;SDS011;45797;47.466;9.486;2023-06-26T23:44:53;4.13;;;1.77;;
37891;SDS011;45797;47.466;9.486;2023-06-26T23:50:02;5.35;;;1.67;;
37891;SDS011;45797;47.466;9.486;2023-06-26T23:55:04;3.60;;;1.70;;
